Weather at 180 Building Helipad

Public forecast

Using degrees Fahrenheit for public forecast. Weather courtesy of forecast.io.

Closest aviation weather report (METAR) to 180 Building Helipad

Closest report is Long Beach Airport (Daugherty Field), 3.7 nm (6.8 km) NNE. Retrieved 2022/01/27 09:18 UTC (50 seconds ago):

KLGB 270918Z AUTO 00000KT 7SM SCT005 09/07 A3014 RMK AO2 T00940072

Closest aviation forecast (TAF) to 180 Building Helipad

Closest forecast is Long Beach Airport (Daugherty Field), 3.7 nm (6.8 km) NNE. Retrieved 2022/01/27 06:40 UTC (3 hours ago):

TAF KLGB 270538Z 2706/2806 VRB03KT P6SM SKC FM272100 25005KT P6SM SKC FM280000 30005KT P6SM SKC FM280300 VRB03KT P6SM SKC